Thunder radar more information blitzortung!


Radar de pluja more information rain snow radar


Visita la nostra xarxa de llocs de meteo:

Template documentation
and downloads

And another site



No particular awareness of the weather is required.    There are no Weather-warnings

Pagina Historial Weather Underground text

Diari Resum Agost 15, 2017 Unitats:  Imperial    Mètric   Tant
« Previous Dia
SegĂźent Dia »
Diari Setmana Mensual Anual Personalitzada
  Maxima: Minima: Media:
Temperatura: 85.3 °F 63 °F 77.7 °F
Punt de rosada: 65.7 °F 54 °F 61 °F
Humitat: 78 % 43 % 58 %
Wind Speed: 15.4 mph 0 mph 5.2 mph
RĂ fegues de vent: 15.4 mph - -
Vent:- - East
Pression baro: 30.1 in 30 in -
Precipitacions: 0 in    
Historical Graphs
 
 
Dades de taula per Agost 15, 2017
Temps Temperatura Punt de rosada Pression baro Vent Wind Speed RĂ fegues de vent Humitat Rainfall Rate (Hourly)
00:00 72 °F 56.8 °F 30.1 in NNE 2.3 mph 2.3 mph 59 % 0 in
00:05 71.6 °F 57 °F 30.1 in NE 1.6 mph   60 % 0 in
00:10 71.6 °F 57 °F 30.1 in NE 2.3 mph 2.3 mph 60 % 0 in
00:15 71.4 °F 57.4 °F 30.1 in NE 1.2 mph   61 % 0 in
00:55 63.5 °F 55.8 °F 30.1 in WSW 1 mph 1 mph 76 % 0 in
01:05 63.3 °F 55.6 °F 30 in Calm     76 % 0 in
01:15 63.1 °F 55.8 °F 30 in Calm     77 % 0 in
01:25 63.3 °F 55.9 °F 30.1 in Calm     77 % 0 in
01:35 63.3 °F 55.9 °F 30 in Calm   1 mph 77 % 0 in
01:45 63.5 °F 56.5 °F 30 in Calm     78 % 0 in
01:55 63.5 °F 56.5 °F 30 in Calm   3 mph 78 % 0 in
02:05 63.1 °F 55.8 °F 30.1 in NE 2 mph 2 mph 77 % 0 in
02:15 63 °F 54.9 °F 30.1 in NE 1 mph 3 mph 75 % 0 in
02:25 63.3 °F 54.5 °F 30.1 in NNE 1 mph 3 mph 73 % 0 in
02:35 63.9 °F 54 °F 30.1 in NNE 2 mph 3 mph 70 % 0 in
02:45 64.4 °F 54 °F 30.1 in North 1 mph 4 mph 69 % 0 in
02:55 65.3 °F 54.5 °F 30.1 in Calm   2 mph 68 % 0 in
03:05 64.6 °F 54.1 °F 30.1 in WSW 2 mph 3 mph 69 % 0 in
03:15 64.4 °F 54.9 °F 30.1 in SW 1 mph 3 mph 71 % 0 in
03:25 64.8 °F 55.6 °F 30.1 in WSW 2 mph 2 mph 72 % 0 in
03:35 66 °F 57 °F 30.1 in SW 1 mph 2 mph 73 % 0 in
03:45 67.3 °F 56.8 °F 30.1 in East 3 mph 4 mph 69 % 0 in
03:55 68.7 °F 57.4 °F 30.1 in NNE 1 mph 4 mph 67 % 0 in
04:05 69.1 °F 56.5 °F 30.1 in North 2 mph 4 mph 64 % 0 in
04:15 69.8 °F 56.1 °F 30.1 in North 2 mph 3 mph 62 % 0 in
04:25 70 °F 55.6 °F 30.1 in NNE 2 mph 6 mph 60 % 0 in
04:35 70 °F 55 °F 30.1 in NNE 5 mph 8 mph 59 % 0 in
04:45 71.2 °F 55.8 °F 30.1 in NNE 3 mph 4 mph 58 % 0 in
04:55 71.8 °F 55.2 °F 30.1 in NNE 3 mph 6 mph 56 % 0 in
05:05 72.9 °F 55.8 °F 30.1 in NNE 2 mph 5 mph 55 % 0 in
05:15 73.8 °F 56.1 °F 30.1 in NNE 3 mph 6 mph 54 % 0 in
05:25 74.5 °F 56.1 °F 30.1 in NNE 3 mph 3 mph 53 % 0 in
05:35 75.4 °F 56.5 °F 30.1 in NNE 5 mph 5 mph 52 % 0 in
05:45 76.1 °F 56.7 °F 30.1 in NE 3 mph 5 mph 51 % 0 in
10:52 78.3 °F 57.6 °F 30.1 in East 3.5 mph 3.5 mph 49 % 0 in
10:53 78.3 °F 57.6 °F 30.1 in ESE 3.8 mph 3.8 mph 49 % 0 in
10:58 78.1 °F 57.4 °F 30.1 in NE 4.7 mph 4.7 mph 49 % 0 in
11:03 78.1 °F 57.4 °F 30.1 in NNW 2.3 mph 2.3 mph 49 % 0 in
11:08 78.4 °F 57.7 °F 30.1 in NE 4.6 mph 4.6 mph 49 % 0 in
11:13 79 °F 57.6 °F 30.1 in ESE 2.4 mph 2.9 mph 48 % 0 in
11:18 80.2 °F 58.8 °F 30.1 in ENE 3.6 mph 3.6 mph 48 % 0 in
11:23 80.2 °F 58.8 °F 30.1 in SE 4.9 mph 4.9 mph 48 % 0 in
11:28 80.1 °F 58.6 °F 30.1 in ESE 6.9 mph 6.9 mph 48 % 0 in
11:33 80.2 °F 58.8 °F 30.1 in ENE 4.6 mph 4.6 mph 48 % 0 in
11:38 80.6 °F 58.5 °F 30.1 in East 2.6 mph 2.6 mph 47 % 0 in
11:43 81.1 °F 58.5 °F 30.1 in East 4.6 mph 4.6 mph 46 % 0 in
11:48 81.5 °F 58.6 °F 30.1 in East 4.9 mph 4.9 mph 46 % 0 in
11:53 81.9 °F 59.2 °F 30.1 in ENE 4.6 mph 4.6 mph 46 % 0 in
11:58 81.5 °F 59.4 °F 30.1 in East 3.8 mph 3.8 mph 47 % 0 in
12:03 82.8 °F 59.9 °F 30.1 in East 5.8 mph 5.8 mph 46 % 0 in
12:08 82.8 °F 59.9 °F 30.1 in SE 4.6 mph 4.6 mph 46 % 0 in
12:13 84.2 °F 59.9 °F 30.1 in South 5.8 mph 5.8 mph 44 % 0 in
12:18 84.4 °F 60.1 °F 30.1 in ENE 5.8 mph 5.8 mph 44 % 0 in
12:23 82.9 °F 58.8 °F 30.1 in ESE 9.2 mph 9.2 mph 44 % 0 in
12:28 83.3 °F 59.2 °F 30.1 in SE 5.8 mph 5.8 mph 44 % 0 in
12:33 83.5 °F 59.4 °F 30.1 in East 8.1 mph 8.1 mph 44 % 0 in
12:38 83.8 °F 59.5 °F 30.1 in ESE 8.1 mph 8.1 mph 44 % 0 in
12:43 84.2 °F 59.4 °F 30.1 in SE 4.6 mph 4.6 mph 43 % 0 in
12:48 84.4 °F 60.1 °F 30.1 in NE 5.8 mph 5.8 mph 44 % 0 in
12:53 84.2 °F 59.9 °F 30.1 in ESE 9.2 mph 9.2 mph 44 % 0 in
12:58 84.9 °F 60.6 °F 30.1 in ESE 8.1 mph 8.1 mph 44 % 0 in
13:03 84.7 °F 61 °F 30.1 in ESE 10.4 mph 10.4 mph 45 % 0 in
13:08 84.7 °F 61 °F 30.1 in ENE 8.1 mph 8.1 mph 45 % 0 in
13:13 84.6 °F 61.5 °F 30.1 in North 10 mph 10 mph 46 % 0 in
13:18 85.1 °F 62.6 °F 30.1 in SSE 8.1 mph 8.1 mph 47 % 0 in
13:23 85.3 °F 62.8 °F 30.1 in ESE 6.9 mph 6.9 mph 47 % 0 in
13:28 84.2 °F 61.9 °F 30.1 in ESE 10.9 mph 10.9 mph 47 % 0 in
13:33 83.5 °F 62.2 °F 30.1 in ESE 12.7 mph 12.7 mph 49 % 0 in
13:38 83.5 °F 62.2 °F 30.1 in SE 10.4 mph 10.4 mph 49 % 0 in
13:43 83.7 °F 63 °F 30.1 in ESE 11.5 mph 11.5 mph 50 % 0 in
13:48 83.1 °F 62.6 °F 30.1 in ESE 10.4 mph 10.4 mph 50 % 0 in
13:53 83.5 °F 62.2 °F 30.1 in East 14.5 mph 14.5 mph 49 % 0 in
13:58 82.6 °F 61 °F 30.1 in ESE 15 mph 15 mph 48 % 0 in
14:03 83.3 °F 61 °F 30.1 in SSW 9.2 mph 9.2 mph 47 % 0 in
14:08 83.5 °F 60.4 °F 30.1 in SSE 10.4 mph 10.4 mph 46 % 0 in
14:13 82.9 °F 60.6 °F 30.1 in SSE 13.8 mph 13.8 mph 47 % 0 in
14:18 83.3 °F 60.4 °F 30.1 in ESE 10.4 mph 10.4 mph 46 % 0 in
14:23 82.9 °F 60.6 °F 30.1 in East 9.2 mph 9.2 mph 47 % 0 in
14:28 82.4 °F 60.1 °F 30 in ESE 12.7 mph 12.7 mph 47 % 0 in
14:33 82.8 °F 61.2 °F 30 in NNE 10.4 mph 10.4 mph 48 % 0 in
14:35 82.8 °F 60.4 °F 30 in ESE 15.4 mph 15.4 mph 47 % 0 in
14:40 82.2 °F 60.1 °F 30 in ESE 11.5 mph 11.5 mph 47 % 0 in
14:45 82.4 °F 60.6 °F 30.1 in SSE 8.1 mph 8.1 mph 48 % 0 in
14:50 83.5 °F 61.7 °F 30.1 in SSE 9.7 mph 9.7 mph 48 % 0 in
14:55 82.4 °F 60.6 °F 30.1 in ESE 12.7 mph 12.7 mph 48 % 0 in
15:00 82 °F 61 °F 30.1 in SSE 9.2 mph 9.2 mph 49 % 0 in
15:05 82.2 °F 61.2 °F 30.1 in ENE 11.5 mph 11.5 mph 49 % 0 in
15:10 83.1 °F 62.1 °F 30.1 in ESE 9.2 mph 9.2 mph 49 % 0 in
15:15 82.8 °F 61.2 °F 30.1 in ENE 12.7 mph 12.7 mph 48 % 0 in
15:20 82.9 °F 61.2 °F 30.1 in ENE 11.5 mph 11.5 mph 48 % 0 in
15:25 83.1 °F 61.3 °F 30.1 in ESE 9.2 mph 9.2 mph 48 % 0 in
15:30 82.2 °F 60.1 °F 30 in ENE 11.5 mph 11.5 mph 47 % 0 in
15:35 82.4 °F 60.6 °F 30 in East 11.5 mph 11.5 mph 48 % 0 in
15:40 82.4 °F 60.6 °F 30 in ENE 15 mph 15 mph 48 % 0 in
15:45 82.2 °F 60.6 °F 30 in East 8.1 mph 8.1 mph 48 % 0 in
15:50 81.9 °F 60.3 °F 30 in ESE 8.1 mph 8.1 mph 48 % 0 in
15:55 82 °F 60.4 °F 30 in East 12.7 mph 12.7 mph 48 % 0 in
16:00 81.7 °F 60.1 °F 30 in ENE 12.7 mph 12.7 mph 48 % 0 in
16:05 81.9 °F 60.3 °F 30 in East 5.8 mph 5.8 mph 48 % 0 in
16:10 81.3 °F 59.2 °F 30 in ENE 6.9 mph 6.9 mph 47 % 0 in
16:15 81.3 °F 59.2 °F 30 in East 5.8 mph 5.8 mph 47 % 0 in
16:20 81.5 °F 59.4 °F 30 in NE 9.2 mph 9.2 mph 47 % 0 in
16:25 81.9 °F 59.7 °F 30 in East 5.8 mph 5.8 mph 47 % 0 in
16:30 82.6 °F 60.3 °F 30 in ENE 8.1 mph 8.1 mph 47 % 0 in
16:35 82.8 °F 60.4 °F 30 in ENE 9.2 mph 9.2 mph 47 % 0 in
16:40 82.4 °F 60.6 °F 30 in NNE 6.9 mph 6.9 mph 48 % 0 in
16:45 82 °F 60.4 °F 30 in ESE 8.1 mph 8.1 mph 48 % 0 in
16:50 82.4 °F 60.6 °F 30 in ESE 6.9 mph 6.9 mph 48 % 0 in
16:55 82.4 °F 60.6 °F 30 in ESE 5.8 mph 5.8 mph 48 % 0 in
17:00 82.9 °F 61.2 °F 30 in ENE 6.9 mph 6.9 mph 48 % 0 in
17:05 82.8 °F 61.2 °F 30 in SSW 6.9 mph 6.9 mph 48 % 0 in
17:10 82.4 °F 61.3 °F 30 in ESE 5.9 mph 5.9 mph 49 % 0 in
17:11 82.4 °F 61.3 °F 30 in ESE 5.8 mph 5.8 mph 49 % 0 in
17:16 81.7 °F 60.6 °F 30 in ESE 4 mph 4 mph 49 % 0 in
17:21 81.7 °F 61.2 °F 30 in ENE 10.4 mph 10.4 mph 50 % 0 in
17:26 81.9 °F 62.1 °F 30 in East 5.8 mph 5.8 mph 51 % 0 in
17:31 82 °F 62.1 °F 30 in ESE 5.8 mph 5.8 mph 51 % 0 in
17:36 82.2 °F 62.2 °F 30 in ESE 5.8 mph 5.8 mph 51 % 0 in
17:41 82 °F 62.1 °F 30 in SE 5.8 mph 5.8 mph 51 % 0 in
17:46 82.2 °F 62.2 °F 30 in SSE 3.5 mph 3.5 mph 51 % 0 in
17:51 82 °F 62.8 °F 30 in SE 5.8 mph 5.8 mph 52 % 0 in
17:56 82.4 °F 63 °F 30 in SSE 3.5 mph 3.5 mph 52 % 0 in
18:01 82.4 °F 63 °F 30 in ESE 6.9 mph 6.9 mph 52 % 0 in
18:06 82.2 °F 62.8 °F 30 in SSW 4.6 mph 4.6 mph 52 % 0 in
18:11 82.6 °F 63.1 °F 30 in SW 5.8 mph 5.8 mph 52 % 0 in
18:16 82.6 °F 63.1 °F 30 in SSE 5.8 mph 5.8 mph 52 % 0 in
18:21 81.9 °F 62.1 °F 30 in SE 3.5 mph 3.5 mph 51 % 0 in
18:26 81.9 °F 61.3 °F 30 in SSE 5.8 mph 5.8 mph 50 % 0 in
18:31 81.7 °F 60.6 °F 30 in SSE 5.8 mph 5.8 mph 49 % 0 in
18:36 81.7 °F 60.6 °F 30 in SW 3.5 mph 3.5 mph 49 % 0 in
18:41 81.7 °F 61.2 °F 30 in ENE 1.4 mph 1.4 mph 50 % 0 in
18:46 82 °F 61.5 °F 30 in SSE 4.6 mph 4.6 mph 50 % 0 in
18:51 81.9 °F 61.3 °F 30 in East 2.3 mph 2.3 mph 50 % 0 in
18:52 81.9 °F 61.3 °F 30 in ESE 2.3 mph   50 % 0 in
18:57 81.9 °F 60.8 °F 30 in East 2.6 mph 2.6 mph 49 % 0 in
19:02 81.5 °F 61.2 °F 30 in NE 3.5 mph 3.5 mph 50 % 0 in
19:07 81.5 °F 61.2 °F 30 in ENE 3.6 mph 3.6 mph 50 % 0 in
19:12 81.3 °F 61 °F 30 in ENE 5.8 mph 5.8 mph 50 % 0 in
19:17 81.3 °F 61 °F 30 in East 8.1 mph 8.1 mph 50 % 0 in
19:22 81.1 °F 61.3 °F 30 in ENE 9.2 mph 9.2 mph 51 % 0 in
19:27 80.8 °F 61 °F 30 in East 5.8 mph 5.8 mph 51 % 0 in
19:32 80.8 °F 61.5 °F 30 in NNE 5.8 mph 5.8 mph 52 % 0 in
19:37 80.4 °F 63.3 °F 30 in NE 9.2 mph 9.2 mph 56 % 0 in
19:42 80.1 °F 64.4 °F 30 in ENE 10.4 mph 10.4 mph 59 % 0 in
19:47 79.9 °F 65.1 °F 30 in SE 6.9 mph 6.9 mph 61 % 0 in
19:52 79.3 °F 65.7 °F 30 in NNE 8.1 mph 8.1 mph 63 % 0 in
19:57 79.2 °F 64.9 °F 30 in ESE 5.9 mph 5.9 mph 62 % 0 in
20:02 79 °F 65.3 °F 30 in ENE 9.2 mph 9.2 mph 63 % 0 in
20:07 79 °F 65.3 °F 30 in South 5.8 mph 5.8 mph 63 % 0 in
20:12 79.2 °F 64.9 °F 30 in SE 3.5 mph 3.5 mph 62 % 0 in
20:17 79 °F 64.4 °F 30 in SSE 5.8 mph 5.8 mph 61 % 0 in
20:22 78.8 °F 64.2 °F 30 in South 3.5 mph 3.5 mph 61 % 0 in
20:27 78.8 °F 63.7 °F 30 in ENE 3.6 mph 3.6 mph 60 % 0 in
20:32 78.6 °F 63.7 °F 30 in ENE 2.3 mph 2.3 mph 60 % 0 in
20:37 78.4 °F 63.3 °F 30 in ENE 3.3 mph 3.3 mph 60 % 0 in
20:42 78.3 °F 63.7 °F 30 in ESE 4.6 mph 4.6 mph 61 % 0 in
20:47 78.1 °F 63.5 °F 30 in ENE 3.5 mph 3.5 mph 61 % 0 in
20:52 77.9 °F 63.9 °F 30 in NNE 3.5 mph 3.5 mph 62 % 0 in
20:57 77.7 °F 63.7 °F 30 in NE 3.5 mph 3.5 mph 62 % 0 in
21:02 77.5 °F 63.5 °F 30 in East 3.5 mph 3.5 mph 62 % 0 in
21:07 77.4 °F 63.9 °F 30 in NNE 4.3 mph 4.3 mph 63 % 0 in
21:12 77.2 °F 64 °F 30 in NE 4.6 mph 4.6 mph 64 % 0 in
21:17 77 °F 63.9 °F 30 in NNE 2.9 mph 2.9 mph 64 % 0 in
21:22 77 °F 64.2 °F 30 in NE 2.6 mph 2.6 mph 65 % 0 in
21:27 76.8 °F 64.6 °F 30 in NNE 3.5 mph 3.5 mph 66 % 0 in
21:32 76.6 °F 64.4 °F 30 in NE 3.5 mph 3.5 mph 66 % 0 in
21:35 72 °F 62.1 °F 30.1 in North 1 mph 1 mph 71 % 0 in
21:37 76.6 °F 64.9 °F 30 in NE 2.3 mph 2.3 mph 67 % 0 in
21:42 76.5 °F 64.8 °F 30 in NNE 3.5 mph 3.5 mph 67 % 0 in
21:45 71.8 °F 62.2 °F 30.1 in NNE 2 mph 4 mph 72 % 0 in
21:47 76.3 °F 64.6 °F 30 in ENE 2.3 mph 2.3 mph 67 % 0 in
21:52 76.3 °F 64.6 °F 30 in ENE 2.3 mph 2.3 mph 67 % 0 in
21:55 71.8 °F 62.2 °F 30.1 in NE 2 mph 3 mph 72 % 0 in
21:57 76.3 °F 64.9 °F 30 in NE 2.3 mph 2.3 mph 68 % 0 in
22:02 76.1 °F 64.8 °F 30 in Calm     68 % 0 in
22:05 71.4 °F 61.9 °F 30.1 in NE 2 mph 3 mph 72 % 0 in
22:07 75.9 °F 64.6 °F 30 in Calm     68 % 0 in
22:12 75.9 °F 64.6 °F 30 in NNW 1.2 mph 1.2 mph 68 % 0 in
22:15 71.4 °F 62.2 °F 30.1 in NNE 1 mph 2 mph 73 % 0 in
22:17 75.7 °F 64.8 °F 30 in ENE 1.2 mph   69 % 0 in
22:22 75.7 °F 64.8 °F 30 in ENE 2.3 mph 2.3 mph 69 % 0 in
22:25 71.2 °F 62.1 °F 30.1 in NNE 1 mph 2 mph 73 % 0 in
22:27 75.7 °F 64.8 °F 30 in NE 2.6 mph 2.6 mph 69 % 0 in
22:32 75.6 °F 64.8 °F 30 in NNE 3.5 mph 3.6 mph 69 % 0 in
22:35 71.1 °F 62.1 °F 30.1 in Calm     73 % 0 in
22:37 75.4 °F 64.6 °F 30 in ENE 4.6 mph 4.6 mph 69 % 0 in
22:42 75.4 °F 64.9 °F 30 in NE 2.6 mph 2.6 mph 70 % 0 in
22:45 71.1 °F 62.4 °F 30.1 in North 1 mph 2 mph 74 % 0 in
22:47 75.4 °F 64.9 °F 30 in NNE 3.8 mph 3.8 mph 70 % 0 in
22:52 75.4 °F 64.9 °F 30 in NNE 0.9 mph   70 % 0 in
22:55 71.4 °F 63.1 °F 30.1 in North 1 mph 2 mph 75 % 0 in
22:57 75.2 °F 64.8 °F 30 in NNE 2.4 mph 2.4 mph 70 % 0 in
23:02 75 °F 64.9 °F 30 in NE 1.2 mph   71 % 0 in
23:05 71.8 °F 63.9 °F 30.1 in NE 2 mph 3 mph 76 % 0 in
23:07 74.8 °F 64.8 °F 30 in NNW 1.2 mph 1.2 mph 71 % 0 in
23:12 74.8 °F 64.8 °F 30 in Calm     71 % 0 in
23:15 72 °F 64.4 °F 30.1 in NE 2 mph 3 mph 77 % 0 in
23:17 74.7 °F 64.9 °F 30.1 in Calm     72 % 0 in
23:22 74.7 °F 64.9 °F 30.1 in NE 3.5 mph 3.5 mph 72 % 0 in
23:25 71.6 °F 64 °F 30.1 in NE 2 mph 3 mph 77 % 0 in
23:27 74.5 °F 64.6 °F 30.1 in NNE 2.6 mph 2.6 mph 71 % 0 in
23:32 74.5 °F 64.6 °F 30 in North 4.6 mph 4.6 mph 71 % 0 in
23:35 71.6 °F 64 °F 30.1 in NNE 2 mph 3 mph 77 % 0 in
23:37 74.7 °F 64.2 °F 30 in NNE 5.8 mph 5.8 mph 70 % 0 in
23:42 74.8 °F 64.4 °F 30 in NNE 4.6 mph 4.6 mph 70 % 0 in
23:45 71.8 °F 64.6 °F 30.1 in NNE 2 mph 3 mph 78 % 0 in
23:47 74.8 °F 64 °F 30 in NE 6.9 mph 6.9 mph 69 % 0 in
23:49 74.8 °F 64 °F 30 in ENE 6 mph 6 mph 69 % 0 in
23:54 74.8 °F 64 °F 30 in NE 5.8 mph 5.8 mph 69 % 0 in
23:55 71.6 °F 64.4 °F 30.1 in NNE 2 mph 3 mph 78 % 0 in
23:59 74.7 °F 63.3 °F 30 in ENE 5.8 mph 5.8 mph 68 % 0 in
Meteo Sesrovires
Elogis d' Weather Underground - 3.5 mb

Guio original per  Jim McMurry - jmcmurry@mwt.net Adaptat per a la plantilla per  Wim van der Kuil - Leuven-Template.eu

Trobareu la nostra informacio del temps tambe a:

Weather Underground

AWEKAS